Time;durP1;ratioP1;P1;durP2;ratioP2;P2;SDS_P1;SDS_P2;PMS_P1;PMS_P2;Temp;Humidity;BMP_temperature;BMP_pressure;BME280_temperature;BME280_humidity;BME280_pressure;Samples;Min_cycle;Max_cycle;Signal;HPM_P1;HPM_P2
2023/05/17 00:00:08;;;;;;;17.23;5.45;;;;;;;;;;5016805;28;98939;-77
2023/05/17 00:02:35;;;;;;;16.35;5.45;;;;;;;;;;5017848;28;100488;-76
2023/05/17 00:05:03;;;;;;;16.83;5.13;;;;;;;;;;5018708;28;100051;-76
2023/05/17 00:07:29;;;;;;;14.57;5.07;;;;;;;;;;5025013;28;100061;-77
2023/05/17 00:09:56;;;;;;;17.92;5.72;;;;;;;;;;5026179;28;99213;-76
2023/05/17 00:12:23;;;;;;;8.07;4.97;;;;;;;;;;5016999;28;100152;-76
2023/05/17 00:14:49;;;;;;;27.05;5.53;;;;;;;;;;5018124;28;99068;-77
2023/05/17 00:17:15;;;;;;;17.13;4.78;;;;;;;;;;5026961;28;99233;-77
2023/05/17 00:19:42;;;;;;;18.63;5.60;;;;;;;;;;5025624;28;98977;-77
2023/05/17 00:22:08;;;;;;;25.05;5.47;;;;;;;;;;5015811;28;99267;-77
2023/05/17 00:24:35;;;;;;;17.40;5.63;;;;;;;;;;5018571;28;100395;-78
2023/05/17 00:27:01;;;;;;;21.10;6.25;;;;;;;;;;5017692;28;99221;-77
2023/05/17 00:29:28;;;;;;;19.58;6.13;;;;;;;;;;5020502;28;100351;-76
2023/05/17 00:31:54;;;;;;;21.70;6.05;;;;;;;;;;5003047;28;101400;-77
2023/05/17 00:34:21;;;;;;;26.20;5.50;;;;;;;;;;5010286;28;99649;-77
2023/05/17 00:36:47;;;;;;;18.77;5.40;;;;;;;;;;5008039;28;100391;-76
2023/05/17 00:39:14;;;;;;;20.80;6.60;;;;;;;;;;5001580;28;99139;-76
2023/05/17 00:41:40;;;;;;;26.55;6.15;;;;;;;;;;5020725;28;100937;-76
2023/05/17 00:44:07;;;;;;;23.85;6.70;;;;;;;;;;5017353;28;98889;-76
2023/05/17 00:46:33;;;;;;;21.27;6.50;;;;;;;;;;5012979;28;100951;-76
2023/05/17 00:49:00;;;;;;;17.25;5.63;;;;;;;;;;5011242;27;99355;-76
2023/05/17 00:51:27;;;;;;;24.83;6.88;;;;;;;;;;5020053;28;101994;-77
2023/05/17 00:53:53;;;;;;;22.60;6.50;;;;;;;;;;5015944;28;98942;-77
2023/05/17 00:56:20;;;;;;;19.45;6.22;;;;;;;;;;5001414;28;101457;-76
2023/05/17 00:58:47;;;;;;;25.00;6.50;;;;;;;;;;5028222;28;98870;-75
2023/05/17 01:01:13;;;;;;;20.52;5.90;;;;;;;;;;5008604;28;101307;-77
2023/05/17 01:03:43;;;;;;;23.58;6.72;;;;;;;;;;4997105;28;99227;-75
2023/05/17 01:06:11;;;;;;;11.30;5.40;;;;;;;;;;4988894;28;99755;-75
2023/05/17 01:08:37;;;;;;;18.00;5.63;;;;;;;;;;5003976;28;101975;-76
2023/05/17 01:11:23;;;;;;;34.85;7.43;;;;;;;;;;5024614;28;99313;-76
2023/05/17 01:13:54;;;;;;;25.73;6.78;;;;;;;;;;4998512;28;100097;-76
2023/05/17 01:16:27;;;;;;;29.27;6.63;;;;;;;;;;5017760;28;100610;-76
2023/05/17 01:19:13;;;;;;;16.95;6.22;;;;;;;;;;5020929;28;98602;-77
2023/05/17 01:21:46;;;;;;;15.45;5.88;;;;;;;;;;4996721;28;100295;-75
2023/05/17 01:24:27;;;;;;;22.05;7.65;;;;;;;;;;5025508;28;98973;-76
2023/05/17 01:26:54;;;;;;;17.52;6.28;;;;;;;;;;5009262;28;101546;-76
2023/05/17 01:29:24;;;;;;;18.40;6.95;;;;;;;;;;5026910;28;100469;-76
2023/05/17 01:31:52;;;;;;;24.65;6.70;;;;;;;;;;5022875;28;99349;-76
2023/05/17 01:34:25;;;;;;;20.80;6.47;;;;;;;;;;5025834;28;98926;-77
2023/05/17 01:36:51;;;;;;;27.52;5.85;;;;;;;;;;5016608;28;99266;-77
2023/05/17 01:39:18;;;;;;;27.02;6.63;;;;;;;;;;5015214;28;99210;-78
2023/05/17 01:41:50;;;;;;;23.38;6.45;;;;;;;;;;5027633;28;99955;-77
2023/05/17 01:44:25;;;;;;;20.17;6.20;;;;;;;;;;5022814;28;99324;-76
2023/05/17 01:46:56;;;;;;;16.35;6.10;;;;;;;;;;5013562;28;99356;-77
2023/05/17 01:49:34;;;;;;;21.83;6.30;;;;;;;;;;5014107;28;99283;-77
2023/05/17 01:52:16;;;;;;;29.40;5.63;;;;;;;;;;5019211;28;99522;-76
2023/05/17 01:54:46;;;;;;;30.57;7.70;;;;;;;;;;5025560;28;99349;-76
2023/05/17 01:57:13;;;;;;;25.40;6.43;;;;;;;;;;5016916;28;100037;-76
2023/05/17 01:59:40;;;;;;;22.98;6.28;;;;;;;;;;5007110;28;101081;-76
2023/05/17 02:02:08;;;;;;;23.33;6.55;;;;;;;;;;5018532;28;100093;-77
2023/05/17 02:04:35;;;;;;;33.83;7.20;;;;;;;;;;5019037;28;99657;-76
2023/05/17 02:07:02;;;;;;;29.05;6.97;;;;;;;;;;5017557;28;99904;-76
2023/05/17 02:09:28;;;;;;;24.70;6.32;;;;;;;;;;5013479;28;99192;-75
2023/05/17 02:11:55;;;;;;;23.13;6.68;;;;;;;;;;5017206;28;99835;-77
2023/05/17 02:14:22;;;;;;;31.60;6.90;;;;;;;;;;5002681;28;101769;-76
2023/05/17 02:16:49;;;;;;;25.08;6.03;;;;;;;;;;5002397;28;99478;-75
2023/05/17 02:19:15;;;;;;;23.42;6.40;;;;;;;;;;5022020;28;99858;-75
2023/05/17 02:21:42;;;;;;;20.40;5.47;;;;;;;;;;5021808;28;99047;-76
2023/05/17 02:24:08;;;;;;;17.83;5.75;;;;;;;;;;4999844;28;99671;-76
2023/05/17 02:26:35;;;;;;;22.25;5.95;;;;;;;;;;4997959;28;100121;-75
2023/05/17 02:29:01;;;;;;;31.83;7.43;;;;;;;;;;5014328;28;99567;-76
2023/05/17 02:31:29;;;;;;;19.75;6.30;;;;;;;;;;5013109;28;99969;-75
2023/05/17 02:33:56;;;;;;;24.20;7.53;;;;;;;;;;4995189;28;100397;-75
2023/05/17 02:36:22;;;;;;;24.42;6.07;;;;;;;;;;4988504;28;100874;-76
2023/05/17 02:38:49;;;;;;;17.63;6.47;;;;;;;;;;5002162;28;101604;-77
2023/05/17 02:41:15;;;;;;;21.08;6.53;;;;;;;;;;5000483;28;99518;-77
2023/05/17 02:43:42;;;;;;;28.48;6.30;;;;;;;;;;5010510;28;100192;-76
2023/05/17 02:46:09;;;;;;;39.92;6.63;;;;;;;;;;5017606;28;98796;-76
2023/05/17 02:48:38;;;;;;;26.58;7.07;;;;;;;;;;5024822;28;99060;-76
2023/05/17 02:51:05;;;;;;;22.15;6.20;;;;;;;;;;5019993;27;100363;-76
2023/05/17 02:53:31;;;;;;;19.13;6.57;;;;;;;;;;5022964;28;98751;-76
2023/05/17 02:55:58;;;;;;;25.88;6.78;;;;;;;;;;5015272;28;99051;-76
2023/05/17 02:58:24;;;;;;;22.98;5.72;;;;;;;;;;5026701;28;98869;-77
2023/05/17 03:00:51;;;;;;;23.20;6.50;;;;;;;;;;5011250;28;101537;-77
2023/05/17 03:03:18;;;;;;;19.73;5.57;;;;;;;;;;5004020;28;100288;-76
2023/05/17 03:05:45;;;;;;;28.95;7.10;;;;;;;;;;4994956;28;101239;-77
2023/05/17 03:08:12;;;;;;;26.80;6.63;;;;;;;;;;4995796;28;101609;-77
2023/05/17 03:10:39;;;;;;;25.95;6.80;;;;;;;;;;5009257;28;102059;-75
2023/05/17 03:13:07;;;;;;;24.25;6.43;;;;;;;;;;4995637;28;101471;-76
2023/05/17 03:15:36;;;;;;;26.48;7.00;;;;;;;;;;4998552;28;101466;-76
2023/05/17 03:18:03;;;;;;;20.77;6.47;;;;;;;;;;5001640;28;100880;-76
2023/05/17 03:20:30;;;;;;;32.60;7.40;;;;;;;;;;4997229;28;100796;-77
2023/05/17 03:22:56;;;;;;;19.48;6.63;;;;;;;;;;5020436;28;99173;-76
2023/05/17 03:25:23;;;;;;;28.25;7.68;;;;;;;;;;5002021;28;100007;-77
2023/05/17 03:27:49;;;;;;;21.08;6.25;;;;;;;;;;5004701;28;101922;-77
2023/05/17 03:30:16;;;;;;;23.27;6.65;;;;;;;;;;5024440;28;100024;-76
2023/05/17 03:32:44;;;;;;;22.83;7.07;;;;;;;;;;5005019;28;98985;-76
2023/05/17 03:35:11;;;;;;;19.65;6.07;;;;;;;;;;5006568;28;100021;-77
2023/05/17 03:37:41;;;;;;;18.83;5.90;;;;;;;;;;5002867;28;101842;-76
2023/05/17 03:40:08;;;;;;;22.25;5.80;;;;;;;;;;5025405;28;98954;-76
2023/05/17 03:42:35;;;;;;;23.05;6.13;;;;;;;;;;5008492;28;99325;-76
2023/05/17 03:45:03;;;;;;;26.85;6.00;;;;;;;;;;5003625;28;100823;-77
2023/05/17 03:47:29;;;;;;;28.92;6.40;;;;;;;;;;4993879;28;101125;-76
2023/05/17 03:49:56;;;;;;;12.93;3.83;;;;;;;;;;4994601;28;101769;-77
2023/05/17 03:52:22;;;;;;;23.58;3.60;;;;;;;;;;4999034;28;99222;-78
2023/05/17 03:54:50;;;;;;;15.02;4.22;;;;;;;;;;5027688;28;99013;-77
2023/05/17 03:57:18;;;;;;;22.60;3.92;;;;;;;;;;4999592;28;100707;-77
2023/05/17 03:59:45;;;;;;;15.57;4.45;;;;;;;;;;5001715;28;101839;-76
2023/05/17 04:02:16;;;;;;;17.30;5.57;;;;;;;;;;5001343;28;99280;-77
2023/05/17 04:04:49;;;;;;;18.88;3.90;;;;;;;;;;5004244;28;100841;-77
2023/05/17 04:07:17;;;;;;;16.42;3.25;;;;;;;;;;5008200;28;101500;-78
2023/05/17 04:09:45;;;;;;;18.08;4.20;;;;;;;;;;5013510;28;100921;-76
2023/05/17 04:12:11;;;;;;;13.10;3.50;;;;;;;;;;5025202;28;100209;-77
2023/05/17 04:14:38;;;;;;;24.95;4.55;;;;;;;;;;5006269;28;101314;-76
2023/05/17 04:17:05;;;;;;;25.92;4.65;;;;;;;;;;5003235;28;100138;-76
2023/05/17 04:19:32;;;;;;;16.45;3.50;;;;;;;;;;5005651;28;100206;-75
2023/05/17 04:21:59;;;;;;;24.90;5.00;;;;;;;;;;5000749;28;99572;-77
2023/05/17 04:24:26;;;;;;;15.45;4.53;;;;;;;;;;5001257;28;100716;-76
2023/05/17 04:26:53;;;;;;;20.33;3.67;;;;;;;;;;5001170;28;99977;-75
2023/05/17 04:29:23;;;;;;;23.98;4.63;;;;;;;;;;5007606;28;101139;-76
2023/05/17 04:31:49;;;;;;;22.35;4.05;;;;;;;;;;5026414;28;98713;-76
2023/05/17 04:34:16;;;;;;;14.50;3.80;;;;;;;;;;4991533;28;98736;-76
2023/05/17 04:36:42;;;;;;;20.60;5.03;;;;;;;;;;4996903;28;100772;-76
2023/05/17 04:39:09;;;;;;;17.90;3.80;;;;;;;;;;4999106;28;102005;-75
2023/05/17 04:41:37;;;;;;;19.50;3.90;;;;;;;;;;5009312;28;101464;-76
2023/05/17 04:44:07;;;;;;;15.95;4.20;;;;;;;;;;5008355;28;100358;-76
2023/05/17 04:46:35;;;;;;;20.58;4.80;;;;;;;;;;5009071;28;102254;-76
2023/05/17 04:49:02;;;;;;;19.77;4.47;;;;;;;;;;5006374;28;101342;-76
2023/05/17 04:51:29;;;;;;;16.55;4.15;;;;;;;;;;5010588;28;99816;-77
2023/05/17 04:53:59;;;;;;;18.90;3.38;;;;;;;;;;5006665;28;101864;-75
2023/05/17 04:56:28;;;;;;;12.45;3.30;;;;;;;;;;5000710;28;100818;-74
2023/05/17 04:58:55;;;;;;;16.70;3.30;;;;;;;;;;5005065;28;98863;-76
2023/05/17 05:01:21;;;;;;;12.70;3.30;;;;;;;;;;5014410;28;99852;-76
2023/05/17 05:03:48;;;;;;;9.68;2.67;;;;;;;;;;4998726;28;101023;-75
2023/05/17 05:06:15;;;;;;;17.88;3.35;;;;;;;;;;5008330;28;99939;-77
2023/05/17 05:08:42;;;;;;;27.63;4.22;;;;;;;;;;5000574;28;102179;-77
2023/05/17 05:11:10;;;;;;;22.60;3.42;;;;;;;;;;5007635;28;101181;-76
2023/05/17 05:13:37;;;;;;;15.77;3.42;;;;;;;;;;5000204;28;100012;-75
2023/05/17 05:16:05;;;;;;;17.13;3.53;;;;;;;;;;4999868;28;101205;-76
2023/05/17 05:18:34;;;;;;;18.85;4.40;;;;;;;;;;5008980;28;101274;-77
2023/05/17 05:21:02;;;;;;;20.60;3.88;;;;;;;;;;5012165;28;101022;-75
2023/05/17 05:23:29;;;;;;;11.38;3.38;;;;;;;;;;5009809;28;101646;-75
2023/05/17 05:25:55;;;;;;;17.92;3.75;;;;;;;;;;5007891;28;99265;-75
2023/05/17 05:28:22;;;;;;;17.13;3.63;;;;;;;;;;5006476;28;99971;-74
2023/05/17 05:30:48;;;;;;;13.82;3.28;;;;;;;;;;5006554;28;102060;-75
2023/05/17 05:33:15;;;;;;;21.85;3.95;;;;;;;;;;5002260;28;100000;-75
2023/05/17 05:35:42;;;;;;;17.00;3.40;;;;;;;;;;5005946;28;101685;-76
2023/05/17 05:38:08;;;;;;;15.95;3.10;;;;;;;;;;4998145;28;100996;-78
2023/05/17 05:40:35;;;;;;;20.15;4.75;;;;;;;;;;5025296;28;99755;-75
2023/05/17 05:43:02;;;;;;;17.23;3.55;;;;;;;;;;5017767;28;99066;-75
2023/05/17 05:45:31;;;;;;;19.25;5.07;;;;;;;;;;5009350;28;98690;-75
2023/05/17 05:48:01;;;;;;;17.80;4.78;;;;;;;;;;5001297;28;99451;-74
2023/05/17 05:50:28;;;;;;;11.38;2.58;;;;;;;;;;5023766;28;99451;-74
2023/05/17 05:53:00;;;;;;;7.72;3.15;;;;;;;;;;5003207;28;101433;-75
2023/05/17 05:55:44;;;;;;;14.45;3.38;;;;;;;;;;5001763;27;101110;-74
2023/05/17 05:58:10;;;;;;;19.83;3.08;;;;;;;;;;5004055;28;102183;-75
2023/05/17 06:00:37;;;;;;;11.73;2.67;;;;;;;;;;5022807;28;99142;-74
2023/05/17 06:03:05;;;;;;;15.07;2.78;;;;;;;;;;5024502;27;100429;-75
2023/05/17 06:05:32;;;;;;;11.07;2.08;;;;;;;;;;5027069;28;98610;-74
2023/05/17 06:07:59;;;;;;;9.20;2.47;;;;;;;;;;5022425;27;100064;-75
2023/05/17 06:10:25;;;;;;;14.23;2.60;;;;;;;;;;5015117;27;99955;-74
2023/05/17 06:12:53;;;;;;;19.00;2.50;;;;;;;;;;5023516;28;99216;-74
2023/05/17 06:15:21;;;;;;;13.38;2.65;;;;;;;;;;5023630;28;99140;-74
2023/05/17 06:17:47;;;;;;;13.45;2.33;;;;;;;;;;5021923;28;100597;-75
2023/05/17 06:20:15;;;;;;;11.65;2.83;;;;;;;;;;5022484;27;98712;-75
2023/05/17 06:22:42;;;;;;;11.82;3.08;;;;;;;;;;5023562;27;100218;-75
2023/05/17 06:25:10;;;;;;;8.18;2.20;;;;;;;;;;5024679;28;99977;-75
2023/05/17 06:27:38;;;;;;;14.57;3.00;;;;;;;;;;5026563;28;100066;-75
2023/05/17 06:30:05;;;;;;;8.20;2.20;;;;;;;;;;5023279;28;100222;-75
2023/05/17 06:32:32;;;;;;;10.00;2.90;;;;;;;;;;5025086;27;99875;-76
2023/05/17 06:34:59;;;;;;;8.30;2.20;;;;;;;;;;5017713;27;99730;-74
2023/05/17 06:37:26;;;;;;;16.25;3.00;;;;;;;;;;5022255;27;100456;-76
2023/05/17 06:39:54;;;;;;;7.55;2.50;;;;;;;;;;5021465;27;100245;-76
2023/05/17 06:42:31;;;;;;;11.07;2.75;;;;;;;;;;5014526;27;101175;-74
2023/05/17 06:44:58;;;;;;;7.47;2.20;;;;;;;;;;5019505;27;99077;-74
2023/05/17 06:47:24;;;;;;;9.45;2.35;;;;;;;;;;5026294;28;99851;-74
2023/05/17 06:49:51;;;;;;;8.52;2.70;;;;;;;;;;5025861;27;100470;-75
2023/05/17 06:52:17;;;;;;;13.70;3.33;;;;;;;;;;5023792;27;100240;-75
2023/05/17 06:54:43;;;;;;;15.05;2.95;;;;;;;;;;5022605;27;100215;-75
2023/05/17 06:57:10;;;;;;;12.15;2.50;;;;;;;;;;5025100;28;99605;-76
2023/05/17 06:59:37;;;;;;;15.23;3.22;;;;;;;;;;5026673;28;100176;-75
2023/05/17 07:02:04;;;;;;;12.88;2.90;;;;;;;;;;5025455;27;100355;-75
2023/05/17 07:04:31;;;;;;;10.30;3.15;;;;;;;;;;5026179;28;100073;-75
2023/05/17 07:06:57;;;;;;;12.98;3.22;;;;;;;;;;5024290;27;99934;-75
2023/05/17 07:09:24;;;;;;;11.50;2.83;;;;;;;;;;5025331;28;100485;-75
2023/05/17 07:11:50;;;;;;;17.80;3.10;;;;;;;;;;5030354;28;100361;-75
2023/05/17 07:14:17;;;;;;;10.50;2.53;;;;;;;;;;5027111;28;100116;-76
2023/05/17 07:16:48;;;;;;;10.05;2.42;;;;;;;;;;5025455;28;98959;-75
2023/05/17 07:19:14;;;;;;;9.77;2.65;;;;;;;;;;5026821;27;100346;-75
2023/05/17 07:21:41;;;;;;;12.68;3.00;;;;;;;;;;5023675;27;100795;-75
2023/05/17 07:24:08;;;;;;;9.75;2.25;;;;;;;;;;5025107;28;100008;-73
2023/05/17 07:26:34;;;;;;;7.63;1.80;;;;;;;;;;5023004;27;100093;-73
2023/05/17 07:29:01;;;;;;;10.50;2.53;;;;;;;;;;5023857;28;100335;-74
2023/05/17 07:31:27;;;;;;;12.25;2.28;;;;;;;;;;5024805;27;100882;-72
2023/05/17 07:33:54;;;;;;;8.82;2.30;;;;;;;;;;5027493;27;101362;-73
2023/05/17 07:36:20;;;;;;;9.82;2.40;;;;;;;;;;5022084;27;100065;-74
2023/05/17 07:38:47;;;;;;;10.23;2.33;;;;;;;;;;5023354;27;100227;-73
2023/05/17 07:41:15;;;;;;;12.32;2.63;;;;;;;;;;5025901;27;100676;-74
2023/05/17 07:43:42;;;;;;;9.75;2.58;;;;;;;;;;5023876;27;99059;-75
2023/05/17 07:46:08;;;;;;;8.68;2.42;;;;;;;;;;5026113;28;100166;-74
2023/05/17 07:48:35;;;;;;;9.82;2.15;;;;;;;;;;5027248;28;99780;-75
2023/05/17 07:51:03;;;;;;;8.60;2.33;;;;;;;;;;5026120;28;98845;-74
2023/05/17 07:53:29;;;;;;;10.45;2.65;;;;;;;;;;5029684;28;100434;-75
2023/05/17 07:55:56;;;;;;;10.50;2.30;;;;;;;;;;5025779;27;99541;-75
2023/05/17 07:58:22;;;;;;;12.85;2.65;;;;;;;;;;5023747;28;100074;-74
2023/05/17 08:00:49;;;;;;;7.93;1.60;;;;;;;;;;5023709;28;100318;-75
2023/05/17 08:03:15;;;;;;;8.43;2.63;;;;;;;;;;5006923;28;100431;-75
2023/05/17 08:05:42;;;;;;;9.40;2.50;;;;;;;;;;5009049;28;99895;-76
2023/05/17 08:08:09;;;;;;;8.43;2.47;;;;;;;;;;5006877;28;100720;-75
2023/05/17 08:10:36;;;;;;;10.82;2.70;;;;;;;;;;5006616;28;100089;-77
2023/05/17 08:13:05;;;;;;;8.40;2.05;;;;;;;;;;5013805;28;100625;-75
2023/05/17 08:15:32;;;;;;;6.50;2.28;;;;;;;;;;5008934;28;99442;-74
2023/05/17 08:17:59;;;;;;;7.55;2.60;;;;;;;;;;5006988;28;99472;-75
2023/05/17 08:20:29;;;;;;;15.73;2.45;;;;;;;;;;5004911;28;100288;-74
2023/05/17 08:22:56;;;;;;;17.67;2.15;;;;;;;;;;5009933;28;99891;-76
2023/05/17 08:25:22;;;;;;;10.60;2.40;;;;;;;;;;5006427;28;99840;-75
2023/05/17 08:27:49;;;;;;;9.90;2.20;;;;;;;;;;5005485;28;99592;-75
2023/05/17 08:30:16;;;;;;;9.85;2.15;;;;;;;;;;5001067;28;99132;-75
2023/05/17 08:32:55;;;;;;;7.68;2.38;;;;;;;;;;5006026;28;99064;-75
2023/05/17 08:35:22;;;;;;;7.18;2.17;;;;;;;;;;4998677;28;99244;-75
2023/05/17 08:37:50;;;;;;;9.52;2.22;;;;;;;;;;5009946;28;98875;-75
2023/05/17 08:40:19;;;;;;;8.35;1.63;;;;;;;;;;5004729;28;100412;-74
2023/05/17 08:42:46;;;;;;;8.27;2.08;;;;;;;;;;5007365;28;99830;-76
2023/05/17 08:45:17;;;;;;;7.60;2.08;;;;;;;;;;5006769;28;99516;-75
2023/05/17 08:47:45;;;;;;;7.95;2.25;;;;;;;;;;5024517;28;99769;-75
2023/05/17 08:50:13;;;;;;;6.75;1.95;;;;;;;;;;5024011;28;100091;-75
2023/05/17 08:52:40;;;;;;;7.95;2.42;;;;;;;;;;4997774;28;99775;-75
2023/05/17 08:55:07;;;;;;;15.23;2.35;;;;;;;;;;5002578;28;101141;-76
2023/05/17 08:57:37;;;;;;;11.05;2.40;;;;;;;;;;5012322;28;99177;-76
2023/05/17 09:00:14;;;;;;;7.65;1.70;;;;;;;;;;5007970;28;98975;-75
2023/05/17 09:02:43;;;;;;;13.50;2.72;;;;;;;;;;5005573;28;99052;-75
2023/05/17 09:05:12;;;;;;;8.57;2.25;;;;;;;;;;5013299;28;98626;-74
2023/05/17 09:07:38;;;;;;;9.95;2.65;;;;;;;;;;5004283;28;100427;-76
2023/05/17 09:10:05;;;;;;;10.52;2.45;;;;;;;;;;5005698;28;99929;-75
2023/05/17 09:12:34;;;;;;;13.38;2.80;;;;;;;;;;5015346;28;100534;-75
2023/05/17 09:15:19;;;;;;;7.38;1.92;;;;;;;;;;4998096;28;100231;-75
2023/05/17 09:17:50;;;;;;;9.77;2.00;;;;;;;;;;5005463;28;99903;-75
2023/05/17 09:20:24;;;;;;;8.82;2.42;;;;;;;;;;5023678;28;99898;-75
2023/05/17 09:22:50;;;;;;;4.68;1.67;;;;;;;;;;5026066;28;99800;-75
2023/05/17 09:25:22;;;;;;;8.07;2.25;;;;;;;;;;5009977;28;99682;-76
2023/05/17 09:27:52;;;;;;;8.65;2.03;;;;;;;;;;5025688;28;99521;-76
2023/05/17 09:30:19;;;;;;;10.63;2.22;;;;;;;;;;4996625;28;100018;-75
2023/05/17 09:32:48;;;;;;;9.52;1.90;;;;;;;;;;5011913;28;100551;-74
2023/05/17 09:35:25;;;;;;;6.78;2.00;;;;;;;;;;5012922;28;101011;-76
2023/05/17 09:37:52;;;;;;;6.93;2.10;;;;;;;;;;5004565;28;99810;-76
2023/05/17 09:40:23;;;;;;;10.38;1.95;;;;;;;;;;5012650;28;99946;-75
2023/05/17 09:42:50;;;;;;;9.40;2.33;;;;;;;;;;5005461;28;99281;-75
2023/05/17 09:45:21;;;;;;;7.43;1.65;;;;;;;;;;5024749;28;98607;-76
2023/05/17 09:47:48;;;;;;;7.30;1.83;;;;;;;;;;5019456;28;100443;-75
2023/05/17 09:50:18;;;;;;;6.03;2.38;;;;;;;;;;5013261;28;99805;-75
2023/05/17 09:52:45;;;;;;;7.75;2.22;;;;;;;;;;5005557;28;100095;-75
2023/05/17 09:55:12;;;;;;;7.00;2.30;;;;;;;;;;5005162;28;100214;-76
2023/05/17 09:57:38;;;;;;;5.30;2.08;;;;;;;;;;5003815;28;99887;-76
2023/05/17 10:00:10;;;;;;;13.18;2.22;;;;;;;;;;4998195;28;100579;-77
2023/05/17 10:02:41;;;;;;;9.55;2.22;;;;;;;;;;5004380;28;100401;-74
2023/05/17 10:05:09;;;;;;;5.75;1.83;;;;;;;;;;5004660;28;98791;-76
2023/05/17 10:07:36;;;;;;;11.00;2.15;;;;;;;;;;5003852;28;100170;-76
2023/05/17 10:10:03;;;;;;;5.22;1.55;;;;;;;;;;5004797;28;99949;-76
2023/05/17 10:12:32;;;;;;;5.10;1.73;;;;;;;;;;5009123;28;99845;-76
2023/05/17 10:14:59;;;;;;;7.07;1.80;;;;;;;;;;5003789;28;99464;-76
2023/05/17 10:17:28;;;;;;;9.73;2.97;;;;;;;;;;5004420;28;99161;-76
2023/05/17 10:19:55;;;;;;;5.28;1.65;;;;;;;;;;5004388;28;99046;-76
2023/05/17 10:22:22;;;;;;;5.15;1.70;;;;;;;;;;5007823;28;100042;-76
2023/05/17 10:24:51;;;;;;;4.80;2.03;;;;;;;;;;5006106;28;99409;-75
2023/05/17 10:27:17;;;;;;;7.28;2.58;;;;;;;;;;5010530;28;100583;-76
2023/05/17 10:29:45;;;;;;;7.97;2.17;;;;;;;;;;5006446;28;99209;-75
2023/05/17 10:32:16;;;;;;;6.35;2.20;;;;;;;;;;5006792;28;99498;-77
2023/05/17 10:34:42;;;;;;;8.32;1.98;;;;;;;;;;5007232;28;100338;-76
2023/05/17 10:37:12;;;;;;;6.72;1.80;;;;;;;;;;5006373;28;99481;-76
2023/05/17 10:39:42;;;;;;;8.02;1.95;;;;;;;;;;5007252;28;99927;-77
2023/05/17 10:42:12;;;;;;;12.10;2.25;;;;;;;;;;5006061;28;98399;-76
2023/05/17 10:44:41;;;;;;;6.03;2.13;;;;;;;;;;5007000;28;99036;-76
2023/05/17 10:47:08;;;;;;;6.88;2.67;;;;;;;;;;5000472;28;99809;-77
2023/05/17 10:49:36;;;;;;;9.10;2.45;;;;;;;;;;5009419;28;102169;-77
2023/05/17 10:52:17;;;;;;;7.18;1.98;;;;;;;;;;5006592;28;99853;-78
2023/05/17 10:54:45;;;;;;;7.10;2.03;;;;;;;;;;5007275;28;99838;-77
2023/05/17 10:57:32;;;;;;;4.97;2.15;;;;;;;;;;5004252;28;99062;-77
2023/05/17 11:00:20;;;;;;;4.97;1.92;;;;;;;;;;4999223;28;99907;-78
2023/05/17 11:03:09;;;;;;;7.95;2.42;;;;;;;;;;4999219;28;100300;-78
2023/05/17 11:05:35;;;;;;;11.93;2.50;;;;;;;;;;5004526;28;99426;-79
2023/05/17 11:08:18;;;;;;;11.38;2.55;;;;;;;;;;4998266;28;99192;-78
2023/05/17 11:11:04;;;;;;;7.97;2.33;;;;;;;;;;5001882;28;100203;-78
2023/05/17 11:13:31;;;;;;;11.02;2.70;;;;;;;;;;5006778;28;100286;-78
2023/05/17 11:16:01;;;;;;;5.22;2.28;;;;;;;;;;4984209;28;100393;-77
2023/05/17 11:18:44;;;;;;;6.47;1.70;;;;;;;;;;5001635;28;99012;-77
2023/05/17 11:21:15;;;;;;;7.80;2.67;;;;;;;;;;4998569;28;99012;-77
2023/05/17 11:23:45;;;;;;;5.90;1.70;;;;;;;;;;4991841;28;99380;-77
2023/05/17 11:26:20;;;;;;;7.93;2.85;;;;;;;;;;4990720;28;99893;-78
2023/05/17 11:28:47;;;;;;;9.75;2.70;;;;;;;;;;5006824;28;100023;-77
2023/05/17 11:31:13;;;;;;;11.27;2.22;;;;;;;;;;5004840;28;100292;-78
2023/05/17 11:33:41;;;;;;;10.90;1.85;;;;;;;;;;5007186;28;99856;-78
2023/05/17 11:36:18;;;;;;;7.72;1.83;;;;;;;;;;5008304;28;99321;-78
2023/05/17 11:38:49;;;;;;;7.40;2.05;;;;;;;;;;5005165;28;100277;-77
2023/05/17 11:41:27;;;;;;;9.43;2.23;;;;;;;;;;5000925;28;101307;-79
2023/05/17 11:43:54;;;;;;;5.97;2.05;;;;;;;;;;5005582;28;100875;-78
2023/05/17 11:46:22;;;;;;;12.57;2.50;;;;;;;;;;4999402;28;100122;-78
2023/05/17 11:48:50;;;;;;;11.35;2.00;;;;;;;;;;5005016;28;99842;-76
2023/05/17 11:51:18;;;;;;;10.18;2.38;;;;;;;;;;5002184;28;100480;-78
2023/05/17 11:53:49;;;;;;;9.30;2.33;;;;;;;;;;5004627;28;98902;-77
2023/05/17 11:56:18;;;;;;;7.28;1.73;;;;;;;;;;5002681;28;99839;-77
2023/05/17 11:58:51;;;;;;;9.15;2.30;;;;;;;;;;5003463;28;98544;-78
2023/05/17 12:01:18;;;;;;;6.80;2.20;;;;;;;;;;4983113;28;101274;-78
2023/05/17 12:03:46;;;;;;;10.13;2.50;;;;;;;;;;5006103;28;99331;-78
2023/05/17 12:06:14;;;;;;;10.00;2.35;;;;;;;;;;5001347;28;99964;-77
2023/05/17 12:08:42;;;;;;;6.38;2.10;;;;;;;;;;5006758;28;100735;-77
2023/05/17 12:11:16;;;;;;;13.38;2.10;;;;;;;;;;5004535;28;100158;-76
2023/05/17 12:13:45;;;;;;;5.72;2.22;;;;;;;;;;5004470;28;100367;-77
2023/05/17 12:16:13;;;;;;;8.55;2.30;;;;;;;;;;5003639;28;99899;-77
2023/05/17 12:18:46;;;;;;;12.85;2.42;;;;;;;;;;5009460;28;99339;-77
2023/05/17 12:21:15;;;;;;;7.85;1.88;;;;;;;;;;5006301;28;99135;-77
2023/05/17 12:23:44;;;;;;;4.53;1.73;;;;;;;;;;5002744;28;99558;-76
2023/05/17 12:26:15;;;;;;;8.25;1.92;;;;;;;;;;5002482;28;100025;-76
2023/05/17 12:28:51;;;;;;;11.85;2.50;;;;;;;;;;5005330;28;99047;-78
2023/05/17 12:31:20;;;;;;;12.85;2.25;;;;;;;;;;5004365;28;100177;-77
2023/05/17 12:33:49;;;;;;;11.85;2.28;;;;;;;;;;5005388;28;100094;-79
2023/05/17 12:36:16;;;;;;;11.07;2.28;;;;;;;;;;5012859;28;100909;-79
2023/05/17 12:38:43;;;;;;;11.13;2.45;;;;;;;;;;5002673;28;100302;-77
2023/05/17 12:41:13;;;;;;;7.07;2.20;;;;;;;;;;5007024;28;100131;-76
2023/05/17 12:43:42;;;;;;;6.55;2.20;;;;;;;;;;5003221;28;100546;-78
2023/05/17 12:46:10;;;;;;;5.40;2.05;;;;;;;;;;5003083;28;99855;-78
2023/05/17 12:48:40;;;;;;;8.95;3.33;;;;;;;;;;5003945;28;99931;-77
2023/05/17 12:51:13;;;;;;;5.25;1.70;;;;;;;;;;4999210;28;100136;-78
2023/05/17 12:53:48;;;;;;;9.15;1.98;;;;;;;;;;5000068;28;99357;-79
2023/05/17 12:56:18;;;;;;;12.35;2.35;;;;;;;;;;5007340;28;99406;-78
2023/05/17 12:59:06;;;;;;;6.72;1.90;;;;;;;;;;5000837;28;100227;-78
2023/05/17 13:01:33;;;;;;;6.25;2.33;;;;;;;;;;5007577;28;99418;-78
2023/05/17 13:04:07;;;;;;;6.63;2.03;;;;;;;;;;5010983;28;101475;-78
2023/05/17 13:06:47;;;;;;;3.72;1.95;;;;;;;;;;4991688;28;100194;-78
2023/05/17 13:09:14;;;;;;;9.82;2.80;;;;;;;;;;4992474;28;98236;-78
2023/05/17 13:11:41;;;;;;;10.88;2.97;;;;;;;;;;4998922;28;100355;-78
2023/05/17 13:14:13;;;;;;;7.93;4.93;;;;;;;;;;4989767;28;100085;-78
2023/05/17 13:16:40;;;;;;;13.52;3.10;;;;;;;;;;4994567;28;98526;-78
2023/05/17 13:19:15;;;;;;;7.75;2.05;;;;;;;;;;4987370;28;98480;-78
2023/05/17 13:21:42;;;;;;;8.48;2.60;;;;;;;;;;4993785;28;100043;-78
2023/05/17 13:24:09;;;;;;;12.05;2.85;;;;;;;;;;4993108;28;98332;-78
2023/05/17 13:26:35;;;;;;;5.60;2.55;;;;;;;;;;4983929;28;99369;-78
2023/05/17 13:29:02;;;;;;;7.47;2.17;;;;;;;;;;4988211;28;99255;-78
2023/05/17 13:31:28;;;;;;;10.73;2.70;;;;;;;;;;4998841;28;99873;-78
2023/05/17 13:33:55;;;;;;;3.33;1.80;;;;;;;;;;4989243;28;100114;-79
2023/05/17 13:36:23;;;;;;;16.38;6.20;;;;;;;;;;4997507;28;98271;-77
2023/05/17 13:38:50;;;;;;;12.70;3.33;;;;;;;;;;4994061;28;101052;-77
2023/05/17 13:41:16;;;;;;;6.60;2.33;;;;;;;;;;4985397;28;99995;-76
2023/05/17 13:43:43;;;;;;;5.22;1.77;;;;;;;;;;4988262;27;98444;-78
2023/05/17 13:46:09;;;;;;;5.60;2.70;;;;;;;;;;4997491;28;99305;-78
2023/05/17 13:48:36;;;;;;;7.53;2.53;;;;;;;;;;4993256;28;98258;-78
2023/05/17 13:51:06;;;;;;;7.95;2.08;;;;;;;;;;4988403;28;98598;-78
2023/05/17 13:53:32;;;;;;;5.18;2.20;;;;;;;;;;4988228;28;99002;-79
2023/05/17 13:55:59;;;;;;;9.27;2.13;;;;;;;;;;4994193;28;98321;-77
2023/05/17 13:58:25;;;;;;;6.97;2.28;;;;;;;;;;4985881;28;99607;-77
2023/05/17 14:00:52;;;;;;;8.48;2.60;;;;;;;;;;4992917;28;100119;-77
2023/05/17 14:03:18;;;;;;;10.15;2.10;;;;;;;;;;4993844;28;99052;-75
2023/05/17 14:05:48;;;;;;;9.48;2.60;;;;;;;;;;4994128;28;99441;-76
2023/05/17 14:08:15;;;;;;;9.52;2.53;;;;;;;;;;4993584;28;99129;-76
2023/05/17 14:10:42;;;;;;;8.00;2.70;;;;;;;;;;4988945;28;99301;-79
2023/05/17 14:13:10;;;;;;;5.13;2.13;;;;;;;;;;4994448;28;98882;-77
2023/05/17 14:15:38;;;;;;;7.45;2.35;;;;;;;;;;4985632;28;99509;-77
2023/05/17 14:18:05;;;;;;;6.70;1.40;;;;;;;;;;4980080;28;100068;-77
2023/05/17 14:20:32;;;;;;;4.28;2.10;;;;;;;;;;4981171;28;99933;-78
2023/05/17 14:22:59;;;;;;;6.80;2.00;;;;;;;;;;4988070;28;98330;-78
2023/05/17 14:25:25;;;;;;;8.02;2.45;;;;;;;;;;4979097;28;98555;-79
2023/05/17 14:27:52;;;;;;;10.95;2.35;;;;;;;;;;4979619;28;100123;-76
2023/05/17 14:30:19;;;;;;;5.30;2.50;;;;;;;;;;4983799;28;98424;-78
2023/05/17 14:32:45;;;;;;;4.60;1.88;;;;;;;;;;4979223;28;99215;-78
2023/05/17 14:35:13;;;;;;;6.03;2.30;;;;;;;;;;4974412;28;98307;-77